Time;durP1;ratioP1;P1;durP2;ratioP2;P2;SDS_P1;SDS_P2;PMS_P1;PMS_P2;Temp;Humidity;BMP_temperature;BMP_pressure;BME280_temperature;BME280_humidity;BME280_pressure;Samples;Min_cycle;Max_cycle;Signal;HPM_P1;HPM_P2
2022/05/18 00:00:57;;;;;;;2.63;2.43;;;21.20;60.10;;;;;;5077339;28;20402;-64
2022/05/18 00:03:30;;;;;;;2.87;2.77;;;21.20;60.10;;;;;;5077296;28;20704;-65
2022/05/18 00:05:58;;;;;;;2.40;2.30;;;21.20;60.10;;;;;;5077058;28;20453;-64
2022/05/18 00:08:24;;;;;;;2.23;2.13;;;21.20;60.10;;;;;;5077211;28;20497;-64
2022/05/18 00:10:50;;;;;;;2.70;2.60;;;21.20;60.10;;;;;;5077096;28;20817;-64
2022/05/18 00:13:17;;;;;;;2.80;2.60;;;21.20;60.10;;;;;;5076962;28;20191;-64
2022/05/18 00:15:44;;;;;;;2.67;2.57;;;21.20;60.10;;;;;;5076973;28;20413;-65
2022/05/18 00:18:10;;;;;;;2.50;2.30;;;21.20;60.10;;;;;;5077028;28;20401;-67
2022/05/18 00:20:35;;;;;;;2.57;2.37;;;21.20;60.10;;;;;;5076975;28;20432;-65
2022/05/18 00:23:03;;;;;;;2.77;2.57;;;21.20;60.10;;;;;;5076919;28;20501;-64
2022/05/18 00:25:31;;;;;;;2.50;2.37;;;21.20;60.10;;;;;;5076807;28;20178;-64
2022/05/18 00:27:57;;;;;;;2.57;2.40;;;21.20;60.10;;;;;;5076871;28;20420;-66
2022/05/18 00:30:25;;;;;;;2.33;2.23;;;21.20;60.10;;;;;;5076760;28;20409;-65
2022/05/18 00:32:52;;;;;;;2.70;2.60;;;21.20;60.10;;;;;;5076805;28;20186;-64
2022/05/18 00:35:18;;;;;;;2.50;2.40;;;21.20;60.00;;;;;;5076618;28;20547;-65
2022/05/18 00:37:44;;;;;;;2.10;2.00;;;21.20;60.00;;;;;;5076578;28;20915;-64
2022/05/18 00:40:12;;;;;;;2.53;2.40;;;21.20;60.00;;;;;;5078728;28;20439;-64
2022/05/18 00:42:38;;;;;;;2.73;2.63;;;21.20;60.10;;;;;;5076837;28;20255;-64
2022/05/18 00:45:04;;;;;;;2.80;2.60;;;21.20;60.10;;;;;;5075686;28;20914;-67
2022/05/18 00:47:30;;;;;;;2.70;2.60;;;21.20;60.10;;;;;;5076022;28;20234;-66
2022/05/18 00:50:08;;;;;;;2.90;2.50;;;21.20;60.10;;;;;;5076344;28;20417;-66
2022/05/18 00:52:41;;;;;;;2.90;2.70;;;21.20;60.10;;;;;;5076424;28;20194;-67
2022/05/18 00:55:10;;;;;;;2.57;2.47;;;21.20;60.10;;;;;;5076245;28;20441;-67
2022/05/18 00:57:40;;;;;;;2.77;2.57;;;21.20;60.10;;;;;;5076212;28;20425;-66
2022/05/18 01:00:13;;;;;;;2.77;2.60;;;21.20;60.10;;;;;;5076525;28;20825;-65
2022/05/18 01:02:43;;;;;;;3.10;2.90;;;21.20;60.10;;;;;;5076209;28;20394;-66
2022/05/18 01:05:12;;;;;;;2.83;2.63;;;21.20;60.10;;;;;;5076153;28;20887;-66
2022/05/18 01:07:47;;;;;;;2.30;2.20;;;21.20;60.10;;;;;;5076053;28;20425;-65
2022/05/18 01:10:13;;;;;;;2.40;2.30;;;21.20;60.10;;;;;;5076414;28;20389;-65
2022/05/18 01:12:38;;;;;;;2.70;2.50;;;21.20;60.10;;;;;;5075944;28;20452;-65
2022/05/18 01:15:11;;;;;;;2.77;2.67;;;21.20;60.10;;;;;;5075901;28;20492;-64
2022/05/18 01:17:40;;;;;;;2.80;2.60;;;21.20;60.10;;;;;;5075915;28;20186;-66
2022/05/18 01:20:28;;;;;;;3.00;2.80;;;21.20;60.10;;;;;;5075880;28;20508;-65
2022/05/18 01:23:03;;;;;;;2.77;2.57;;;21.20;60.10;;;;;;5075863;28;20733;-66
2022/05/18 01:25:32;;;;;;;3.20;3.00;;;21.20;60.10;;;;;;5075720;28;20466;-66
2022/05/18 01:27:59;;;;;;;2.83;2.63;;;21.20;60.10;;;;;;5075719;28;20405;-66
2022/05/18 01:30:27;;;;;;;2.30;2.20;;;21.20;60.10;;;;;;5075671;28;20453;-66
2022/05/18 01:32:55;;;;;;;2.70;2.57;;;21.20;60.10;;;;;;5075557;28;20421;-64
2022/05/18 01:35:30;;;;;;;2.77;2.67;;;21.20;60.00;;;;;;5075481;28;20448;-67
2022/05/18 01:37:59;;;;;;;2.53;2.43;;;21.20;60.00;;;;;;5075533;28;20481;-66
2022/05/18 01:41:05;;;;;;;2.77;2.57;;;21.20;60.10;;;;;;5075425;28;20416;-66
2022/05/18 01:43:50;;;;;;;2.60;2.47;;;21.20;60.10;;;;;;5075393;28;20408;-65
2022/05/18 01:46:19;;;;;;;2.80;2.60;;;21.20;60.10;;;;;;5075227;28;20421;-65
2022/05/18 01:48:49;;;;;;;2.60;2.50;;;21.20;60.10;;;;;;5075151;28;20482;-65
2022/05/18 01:51:45;;;;;;;2.77;2.57;;;21.20;60.10;;;;;;5075220;28;20471;-64
2022/05/18 01:54:12;;;;;;;2.70;2.57;;;21.20;60.20;;;;;;5071539;28;20830;-65
2022/05/18 01:56:37;;;;;;;2.87;2.77;;;21.20;60.20;;;;;;5073986;28;20440;-64
2022/05/18 01:59:03;;;;;;;2.53;2.33;;;21.20;60.10;;;;;;5074138;28;20751;-67
2022/05/18 02:01:29;;;;;;;2.50;2.40;;;21.20;60.20;;;;;;5075019;28;20198;-66
2022/05/18 02:03:55;;;;;;;2.90;2.70;;;21.20;60.20;;;;;;5074993;28;20862;-64
2022/05/18 02:06:21;;;;;;;3.10;2.90;;;21.20;60.30;;;;;;5074954;28;20210;-65
2022/05/18 02:08:46;;;;;;;3.07;2.87;;;21.20;60.30;;;;;;5074847;28;20183;-66
2022/05/18 02:11:18;;;;;;;3.00;2.80;;;21.20;60.30;;;;;;5074859;28;20735;-64
2022/05/18 02:13:44;;;;;;;3.17;2.93;;;21.20;60.30;;;;;;5074729;28;20191;-65
2022/05/18 02:16:10;;;;;;;2.60;2.23;;;21.20;60.40;;;;;;5074705;28;20435;-66
2022/05/18 02:18:36;;;;;;;2.70;2.60;;;21.20;60.40;;;;;;5074668;28;20184;-64
2022/05/18 02:21:08;;;;;;;2.80;2.60;;;21.20;60.40;;;;;;5085482;28;20479;-66
2022/05/18 02:23:34;;;;;;;3.10;2.90;;;21.20;60.40;;;;;;5073717;28;20221;-64
2022/05/18 02:26:21;;;;;;;3.10;2.90;;;21.20;60.40;;;;;;5074500;28;20761;-64
2022/05/18 02:28:47;;;;;;;2.80;2.60;;;21.20;60.40;;;;;;5074590;28;20844;-64
2022/05/18 02:31:13;;;;;;;3.07;2.87;;;21.20;60.40;;;;;;5074448;28;20493;-64
2022/05/18 02:33:39;;;;;;;2.97;2.77;;;21.20;60.40;;;;;;5074348;28;20927;-64
2022/05/18 02:36:06;;;;;;;3.00;2.80;;;21.20;60.40;;;;;;5074414;28;20237;-65
2022/05/18 02:38:33;;;;;;;3.00;2.80;;;21.20;60.40;;;;;;5074346;28;20401;-64
2022/05/18 02:40:59;;;;;;;3.10;2.90;;;21.20;60.40;;;;;;5074424;28;20924;-64
2022/05/18 02:43:26;;;;;;;2.60;2.50;;;21.20;60.40;;;;;;5074404;28;20405;-65
2022/05/18 02:46:06;;;;;;;3.20;3.00;;;21.20;60.40;;;;;;5073376;28;20425;-65
2022/05/18 02:48:31;;;;;;;3.00;2.80;;;21.20;60.40;;;;;;5074178;28;20472;-65
2022/05/18 02:50:57;;;;;;;2.93;2.73;;;21.20;60.40;;;;;;5074466;28;20413;-64
2022/05/18 02:53:23;;;;;;;2.53;2.40;;;21.20;60.40;;;;;;5074165;28;20191;-65
2022/05/18 02:56:07;;;;;;;2.73;2.53;;;21.20;60.40;;;;;;5074177;28;20183;-66
2022/05/18 02:58:42;;;;;;;2.57;2.47;;;21.20;60.40;;;;;;5074527;28;20166;-65
2022/05/18 03:01:13;;;;;;;3.23;3.03;;;21.20;60.40;;;;;;5074207;28;20412;-65
2022/05/18 03:03:39;;;;;;;2.87;2.67;;;21.20;60.50;;;;;;5074156;28;20425;-64
2022/05/18 03:06:07;;;;;;;3.60;3.40;;;21.10;60.50;;;;;;5074104;28;20433;-66
2022/05/18 03:08:35;;;;;;;2.90;2.70;;;21.20;60.40;;;;;;5073933;28;20441;-66
2022/05/18 03:11:01;;;;;;;2.80;2.70;;;21.20;60.40;;;;;;5074148;28;20543;-65
2022/05/18 03:13:28;;;;;;;3.20;3.00;;;21.20;60.40;;;;;;5074046;28;20823;-65
2022/05/18 03:15:54;;;;;;;2.53;2.43;;;21.20;60.40;;;;;;5074206;28;20440;-66
2022/05/18 03:18:20;;;;;;;2.43;2.23;;;21.20;60.40;;;;;;5074050;28;20759;-66
2022/05/18 03:23:36;;;;;;;2.87;2.67;;;21.20;60.50;;;;;;5074003;28;20542;-66
2022/05/18 03:26:08;;;;;;;2.97;2.77;;;21.20;60.40;;;;;;5074217;28;20417;-65
2022/05/18 03:28:35;;;;;;;2.50;2.30;;;21.20;60.50;;;;;;5073943;28;20389;-67
2022/05/18 03:31:01;;;;;;;2.73;2.60;;;21.20;60.40;;;;;;5073917;28;20423;-65
2022/05/18 03:33:27;;;;;;;3.10;2.90;;;21.20;60.50;;;;;;5073797;28;20408;-65
2022/05/18 03:35:53;;;;;;;3.47;3.27;;;21.20;60.40;;;;;;5073714;28;20429;-65
2022/05/18 03:38:20;;;;;;;3.13;2.93;;;21.10;60.40;;;;;;5072921;28;20167;-66
2022/05/18 03:40:46;;;;;;;2.97;2.77;;;21.20;60.40;;;;;;5072820;28;20428;-66
2022/05/18 03:43:12;;;;;;;2.63;2.50;;;21.20;60.50;;;;;;5073845;28;20745;-66
2022/05/18 03:45:38;;;;;;;2.40;2.30;;;21.20;60.40;;;;;;5072768;28;20632;-64
2022/05/18 03:48:06;;;;;;;2.50;2.40;;;21.20;60.40;;;;;;5073575;28;20544;-64
2022/05/18 03:50:32;;;;;;;2.90;2.70;;;21.20;60.40;;;;;;5072771;28;20458;-64
2022/05/18 03:52:58;;;;;;;3.10;2.90;;;21.20;60.40;;;;;;5073661;28;20413;-65
2022/05/18 03:55:25;;;;;;;2.77;2.57;;;21.20;60.40;;;;;;5073554;28;20495;-66
2022/05/18 03:57:51;;;;;;;2.60;2.40;;;21.20;60.40;;;;;;5073658;28;20895;-65
2022/05/18 04:00:18;;;;;;;3.10;2.90;;;21.20;60.40;;;;;;5073668;28;20447;-65
2022/05/18 04:02:44;;;;;;;2.67;2.57;;;21.20;60.40;;;;;;5073599;28;20398;-65
2022/05/18 04:05:10;;;;;;;2.80;2.60;;;21.20;60.40;;;;;;5073541;28;20407;-64
2022/05/18 04:07:36;;;;;;;2.80;2.60;;;21.20;60.40;;;;;;5073441;28;20528;-64
2022/05/18 04:10:03;;;;;;;2.87;2.77;;;21.20;60.40;;;;;;5072600;28;20515;-66
2022/05/18 04:12:29;;;;;;;3.00;2.80;;;21.20;60.40;;;;;;5073527;28;20409;-66
2022/05/18 04:14:55;;;;;;;2.50;2.40;;;21.20;60.40;;;;;;5073420;28;20501;-66
2022/05/18 04:17:21;;;;;;;3.13;2.93;;;21.20;60.40;;;;;;5073367;28;20179;-65
2022/05/18 04:19:47;;;;;;;2.60;2.40;;;21.20;60.40;;;;;;5074832;28;20849;-66
2022/05/18 04:22:13;;;;;;;2.50;2.40;;;21.20;60.40;;;;;;5076949;28;20442;-66
2022/05/18 04:24:39;;;;;;;3.20;3.00;;;21.20;60.40;;;;;;5076949;28;20179;-65
2022/05/18 04:27:06;;;;;;;3.30;3.10;;;21.20;60.40;;;;;;5076841;28;20187;-65
2022/05/18 04:29:32;;;;;;;3.27;3.07;;;21.20;60.40;;;;;;5084432;28;20174;-65
2022/05/18 04:31:58;;;;;;;3.63;3.40;;;21.20;60.40;;;;;;5097067;28;20461;-65
2022/05/18 04:34:25;;;;;;;3.17;2.93;;;21.20;60.40;;;;;;5088681;28;20452;-66
2022/05/18 04:36:51;;;;;;;3.07;2.87;;;21.20;60.40;;;;;;5076650;28;20429;-65
2022/05/18 04:39:17;;;;;;;2.73;2.63;;;21.20;60.40;;;;;;5076733;28;20925;-64
2022/05/18 04:41:43;;;;;;;3.27;3.07;;;21.20;60.40;;;;;;5075635;28;20497;-66
2022/05/18 04:44:09;;;;;;;2.70;2.50;;;21.20;60.40;;;;;;5076891;28;20216;-66
2022/05/18 04:46:34;;;;;;;3.07;2.87;;;21.20;60.40;;;;;;5076441;28;21008;-65
2022/05/18 04:49:00;;;;;;;2.97;2.80;;;21.20;60.40;;;;;;5075520;28;20809;-65
2022/05/18 04:51:26;;;;;;;3.40;3.20;;;21.20;60.40;;;;;;5076462;28;20186;-65
2022/05/18 04:53:52;;;;;;;3.13;2.93;;;21.20;60.40;;;;;;5076293;28;20224;-66
2022/05/18 04:56:18;;;;;;;2.70;2.60;;;21.20;60.40;;;;;;5076287;28;20421;-65
2022/05/18 04:58:43;;;;;;;3.00;2.80;;;21.20;60.50;;;;;;5076568;28;20421;-65
2022/05/18 05:01:10;;;;;;;3.10;2.90;;;21.20;60.50;;;;;;5076259;28;20403;-64
2022/05/18 05:03:36;;;;;;;3.13;2.93;;;21.20;60.50;;;;;;5076280;28;20574;-66
2022/05/18 05:06:04;;;;;;;2.43;2.33;;;21.20;60.40;;;;;;5076142;28;20894;-66
2022/05/18 05:08:30;;;;;;;2.83;2.70;;;21.20;60.30;;;;;;5075181;28;20417;-64
2022/05/18 05:10:56;;;;;;;3.20;3.00;;;21.20;60.30;;;;;;5075119;28;20413;-66
2022/05/18 05:13:23;;;;;;;2.90;2.70;;;21.20;60.30;;;;;;5075979;28;20867;-67
2022/05/18 05:15:51;;;;;;;2.83;2.63;;;21.10;60.40;;;;;;5074956;28;21012;-65
2022/05/18 05:18:17;;;;;;;2.67;2.47;;;21.10;60.60;;;;;;5075760;28;20730;-66
2022/05/18 05:20:43;;;;;;;2.60;2.40;;;21.10;60.70;;;;;;5076003;28;20401;-65
2022/05/18 05:23:09;;;;;;;3.03;2.83;;;21.10;60.60;;;;;;5075681;28;20166;-65
2022/05/18 05:25:34;;;;;;;3.60;3.03;;;21.10;60.70;;;;;;5075686;28;20424;-66
2022/05/18 05:28:00;;;;;;;3.30;3.10;;;21.10;60.70;;;;;;5076054;28;20647;-64
2022/05/18 05:30:27;;;;;;;3.20;3.00;;;21.10;60.70;;;;;;5075393;28;20234;-64
2022/05/18 05:32:52;;;;;;;2.97;2.77;;;21.10;60.80;;;;;;5075665;28;20613;-65
2022/05/18 05:35:18;;;;;;;2.60;2.50;;;21.10;60.80;;;;;;5075476;28;20475;-65
2022/05/18 05:37:44;;;;;;;3.00;2.80;;;21.10;60.80;;;;;;5075458;28;20201;-64
2022/05/18 05:40:11;;;;;;;3.30;3.10;;;21.10;60.90;;;;;;5075483;28;20854;-64
2022/05/18 05:42:38;;;;;;;2.90;2.70;;;21.00;61.00;;;;;;5075294;28;20159;-64
2022/05/18 05:45:04;;;;;;;2.77;2.57;;;21.00;61.00;;;;;;5075290;28;20432;-66
2022/05/18 05:47:30;;;;;;;2.73;2.63;;;21.00;61.10;;;;;;5074075;28;20469;-66
2022/05/18 05:49:55;;;;;;;2.97;2.77;;;21.00;61.10;;;;;;5075307;28;20404;-66
2022/05/18 05:52:21;;;;;;;2.70;2.60;;;21.00;61.10;;;;;;5075216;28;20269;-65
2022/05/18 05:54:47;;;;;;;2.90;2.70;;;21.10;61.10;;;;;;5075060;28;20230;-65
2022/05/18 05:57:12;;;;;;;2.80;2.60;;;21.00;61.10;;;;;;5075078;28;20183;-64
2022/05/18 05:59:38;;;;;;;3.00;2.80;;;21.00;61.20;;;;;;5075405;28;20183;-66
2022/05/18 06:02:08;;;;;;;2.87;2.67;;;21.00;61.20;;;;;;5075065;28;20610;-64
2022/05/18 06:04:35;;;;;;;2.60;2.40;;;21.00;61.20;;;;;;5074995;28;20401;-66
2022/05/18 06:07:02;;;;;;;2.33;2.23;;;21.00;61.20;;;;;;5074849;28;20436;-66
2022/05/18 06:09:28;;;;;;;2.63;2.50;;;21.10;61.20;;;;;;5074963;28;20474;-66
2022/05/18 06:11:53;;;;;;;2.93;2.80;;;21.10;61.20;;;;;;5074877;28;20412;-65
2022/05/18 06:14:19;;;;;;;2.60;2.50;;;21.00;61.20;;;;;;5074716;28;20924;-65
2022/05/18 06:16:49;;;;;;;2.57;2.47;;;21.10;61.30;;;;;;5074728;28;20196;-65
2022/05/18 06:19:16;;;;;;;3.07;2.87;;;21.10;61.30;;;;;;5074755;28;20644;-66
2022/05/18 06:21:42;;;;;;;2.67;2.47;;;21.10;61.30;;;;;;5074708;28;20393;-65
2022/05/18 06:24:09;;;;;;;3.20;3.00;;;21.10;61.30;;;;;;5074663;28;20413;-66
2022/05/18 06:26:36;;;;;;;3.03;2.83;;;21.10;61.40;;;;;;5074527;28;20890;-65
2022/05/18 06:29:05;;;;;;;2.40;2.30;;;21.10;61.40;;;;;;5074562;28;20405;-66
2022/05/18 06:31:31;;;;;;;2.80;2.60;;;21.10;61.50;;;;;;5074504;28;20423;-65
2022/05/18 06:33:57;;;;;;;2.10;2.00;;;21.10;61.40;;;;;;5065728;28;20540;-65
2022/05/18 06:36:23;;;;;;;2.97;2.87;;;21.10;61.40;;;;;;5053464;28;20426;-66
2022/05/18 06:38:49;;;;;;;2.73;2.53;;;21.10;61.40;;;;;;5054447;28;20405;-65
2022/05/18 06:41:24;;;;;;;3.17;2.97;;;21.10;61.40;;;;;;5054699;28;20414;-66
2022/05/18 06:43:50;;;;;;;2.60;2.50;;;21.10;61.40;;;;;;5053831;28;20476;-66
2022/05/18 06:46:16;;;;;;;2.80;2.70;;;21.10;61.40;;;;;;5070706;28;20440;-66
2022/05/18 06:48:42;;;;;;;2.60;2.50;;;21.10;61.40;;;;;;5084561;28;20465;-65
2022/05/18 06:51:08;;;;;;;2.90;2.70;;;21.10;61.40;;;;;;5074311;28;20206;-66
2022/05/18 06:53:33;;;;;;;3.00;2.80;;;21.10;61.40;;;;;;5086052;28;20190;-65
2022/05/18 06:55:59;;;;;;;3.00;2.80;;;21.10;61.40;;;;;;5077318;28;20278;-66
2022/05/18 06:58:25;;;;;;;2.40;2.30;;;21.10;61.40;;;;;;5076310;28;20171;-65
2022/05/18 07:00:50;;;;;;;2.90;2.70;;;21.10;61.30;;;;;;5093324;28;20223;-66
2022/05/18 07:03:17;;;;;;;2.70;2.60;;;21.10;61.40;;;;;;5094351;28;20183;-66
2022/05/18 07:05:43;;;;;;;3.20;3.00;;;21.10;61.30;;;;;;5094531;28;20285;-66
2022/05/18 07:08:09;;;;;;;2.80;2.60;;;21.20;61.30;;;;;;5094308;28;20416;-66
2022/05/18 07:10:35;;;;;;;2.90;2.60;;;21.20;61.30;;;;;;5094337;28;20439;-65
2022/05/18 07:13:01;;;;;;;3.20;3.00;;;21.20;61.30;;;;;;5094290;28;20510;-64
2022/05/18 07:15:26;;;;;;;3.37;3.17;;;21.20;61.20;;;;;;5094141;28;20537;-64
2022/05/18 07:17:52;;;;;;;2.80;2.60;;;21.20;61.20;;;;;;5093318;28;20173;-65
2022/05/18 07:20:18;;;;;;;3.20;2.90;;;21.20;61.20;;;;;;5094318;28;20178;-66
2022/05/18 07:22:43;;;;;;;2.70;2.50;;;21.20;61.20;;;;;;5090120;28;20182;-64
2022/05/18 07:25:09;;;;;;;3.17;2.97;;;21.20;61.30;;;;;;5089818;28;20174;-65
2022/05/18 07:27:35;;;;;;;2.70;2.50;;;21.20;61.30;;;;;;5094101;28;20186;-64
2022/05/18 07:30:02;;;;;;;3.20;3.10;;;21.10;61.30;;;;;;5077295;28;20552;-64
2022/05/18 07:32:28;;;;;;;3.27;3.07;;;21.10;61.30;;;;;;5078655;28;20181;-64
2022/05/18 07:34:54;;;;;;;3.07;2.87;;;21.20;61.30;;;;;;5077219;28;20785;-65
2022/05/18 07:37:20;;;;;;;2.97;2.77;;;21.20;61.30;;;;;;5080695;28;20779;-66
2022/05/18 07:39:46;;;;;;;2.20;2.10;;;21.20;61.30;;;;;;5086032;28;20247;-65
2022/05/18 07:42:12;;;;;;;3.10;2.90;;;21.10;61.30;;;;;;5074259;28;20186;-66
2022/05/18 07:44:38;;;;;;;3.10;2.90;;;21.20;61.30;;;;;;5093050;28;20467;-65
2022/05/18 07:47:06;;;;;;;3.13;2.93;;;21.20;61.20;;;;;;5093925;28;20842;-66
2022/05/18 07:49:40;;;;;;;2.73;2.60;;;21.10;61.30;;;;;;5092976;28;20174;-64
2022/05/18 07:52:07;;;;;;;2.53;2.43;;;21.10;61.30;;;;;;5093890;28;20404;-64
2022/05/18 07:54:33;;;;;;;2.50;2.40;;;21.10;61.30;;;;;;5096236;28;20794;-65
2022/05/18 07:56:59;;;;;;;2.90;2.70;;;21.10;61.30;;;;;;5075589;28;20441;-64
2022/05/18 07:59:25;;;;;;;3.53;3.33;;;21.10;61.30;;;;;;5057276;28;20413;-65
2022/05/18 08:01:51;;;;;;;2.97;2.77;;;21.10;61.30;;;;;;5057276;28;20723;-64
2022/05/18 08:04:17;;;;;;;3.10;2.90;;;21.10;61.40;;;;;;5057441;28;20736;-64
2022/05/18 08:06:43;;;;;;;2.57;2.40;;;21.10;61.30;;;;;;5082508;28;20444;-64
2022/05/18 08:09:09;;;;;;;3.10;2.90;;;21.10;61.30;;;;;;5083427;28;20174;-65
2022/05/18 08:17:04;;;;;;;2.70;2.50;;;21.10;61.40;;;;;;5087288;28;20450;-67
2022/05/18 08:19:29;;;;;;;3.07;2.87;;;21.10;61.40;;;;;;5097054;28;20862;-66
2022/05/18 08:21:55;;;;;;;2.43;2.33;;;21.10;61.40;;;;;;5097078;28;20405;-66
2022/05/18 08:24:21;;;;;;;2.63;2.50;;;21.10;61.40;;;;;;5071355;28;20180;-65
2022/05/18 08:26:47;;;;;;;2.80;2.60;;;21.10;61.40;;;;;;5056720;28;20429;-66
2022/05/18 08:29:13;;;;;;;2.67;2.57;;;21.10;61.30;;;;;;5057088;28;20634;-68
2022/05/18 08:31:39;;;;;;;2.93;2.73;;;21.10;61.30;;;;;;5056967;28;20244;-67
2022/05/18 08:34:05;;;;;;;2.70;2.60;;;21.10;61.30;;;;;;5056553;28;20450;-66
2022/05/18 08:36:32;;;;;;;2.43;2.33;;;21.10;61.30;;;;;;5056463;28;20279;-67
2022/05/18 08:38:58;;;;;;;3.07;2.87;;;21.10;61.30;;;;;;5055586;28;20778;-66
2022/05/18 08:41:34;;;;;;;3.00;2.80;;;21.10;61.30;;;;;;5056861;28;20751;-67
2022/05/18 08:44:05;;;;;;;3.20;3.00;;;21.10;61.30;;;;;;5056661;28;20443;-67
2022/05/18 08:46:45;;;;;;;3.30;2.70;;;21.10;61.20;;;;;;5056416;28;20425;-66
2022/05/18 08:49:39;;;;;;;3.27;3.07;;;21.10;61.20;;;;;;5056580;28;20405;-65
2022/05/18 08:52:26;;;;;;;2.63;2.53;;;21.10;61.20;;;;;;5056796;28;20395;-68
2022/05/18 08:55:09;;;;;;;2.93;2.73;;;21.10;61.20;;;;;;5055513;28;20461;-65
2022/05/18 08:57:40;;;;;;;2.63;2.53;;;21.10;61.20;;;;;;5056157;28;20428;-66
2022/05/18 09:00:16;;;;;;;2.73;2.63;;;21.10;61.20;;;;;;5055249;28;20430;-66
2022/05/18 09:02:43;;;;;;;2.80;2.60;;;21.10;61.20;;;;;;5056160;28;20849;-66
2022/05/18 09:05:16;;;;;;;2.50;2.30;;;21.10;61.30;;;;;;5055377;28;20941;-65
2022/05/18 09:07:59;;;;;;;3.00;2.80;;;21.10;61.30;;;;;;5056025;28;20422;-68
2022/05/18 09:10:35;;;;;;;2.63;2.53;;;21.10;61.20;;;;;;5055996;28;20722;-68
2022/05/18 09:13:02;;;;;;;2.40;2.30;;;21.10;61.20;;;;;;5056057;28;20403;-67
2022/05/18 09:16:09;;;;;;;3.03;2.83;;;21.20;61.20;;;;;;5055701;28;20450;-68
2022/05/18 09:18:43;;;;;;;3.27;3.07;;;21.10;61.20;;;;;;5054868;28;20864;-67
2022/05/18 09:21:39;;;;;;;3.10;2.90;;;21.10;61.30;;;;;;5055864;28;20410;-66
2022/05/18 09:24:24;;;;;;;2.80;2.67;;;21.20;61.20;;;;;;5056111;28;20418;-67
2022/05/18 09:27:26;;;;;;;3.07;2.87;;;21.10;61.20;;;;;;5055674;28;20483;-65
2022/05/18 09:30:09;;;;;;;2.77;2.57;;;21.10;61.20;;;;;;5052601;28;20907;-67
2022/05/18 09:33:27;;;;;;;2.70;2.50;;;21.10;61.20;;;;;;5055627;28;20383;-66
2022/05/18 09:36:40;;;;;;;2.60;2.40;;;21.10;61.20;;;;;;5054336;28;20826;-68
2022/05/18 09:39:10;;;;;;;3.00;2.80;;;21.20;61.20;;;;;;5051450;28;20904;-65
2022/05/18 09:41:44;;;;;;;3.10;2.90;;;21.20;61.10;;;;;;5055432;28;20406;-68
2022/05/18 09:44:25;;;;;;;3.03;2.83;;;21.20;61.10;;;;;;5055384;28;20709;-66
2022/05/18 09:46:52;;;;;;;3.07;2.90;;;21.20;61.20;;;;;;5055072;28;20479;-67
2022/05/18 09:49:44;;;;;;;2.87;2.73;;;21.20;61.10;;;;;;5054312;28;20419;-67
2022/05/18 09:52:10;;;;;;;3.27;3.07;;;21.20;61.10;;;;;;5055158;28;20478;-65
2022/05/18 09:54:37;;;;;;;3.13;2.93;;;21.20;61.10;;;;;;5054113;28;20978;-65
2022/05/18 09:57:09;;;;;;;3.13;2.93;;;21.20;61.10;;;;;;5055082;28;20419;-66
2022/05/18 09:59:47;;;;;;;2.90;2.73;;;21.20;61.10;;;;;;5055107;28;20395;-67
2022/05/18 10:07:51;;;;;;;3.20;3.00;;;21.20;61.10;;;;;;5054899;28;20484;-67
2022/05/18 10:10:19;;;;;;;3.10;2.90;;;21.20;61.10;;;;;;5054848;28;20755;-67
2022/05/18 10:12:59;;;;;;;2.73;2.63;;;21.20;61.10;;;;;;5054829;28;20495;-65
2022/05/18 10:15:25;;;;;;;3.43;3.23;;;21.20;61.10;;;;;;5054869;28;20445;-65
2022/05/18 10:18:00;;;;;;;3.07;2.87;;;21.20;61.20;;;;;;5053797;28;20899;-67
2022/05/18 10:20:32;;;;;;;2.83;2.63;;;21.20;61.20;;;;;;5054720;28;20178;-65
2022/05/18 10:22:59;;;;;;;2.90;2.77;;;21.20;61.10;;;;;;5054724;28;20845;-67
2022/05/18 10:25:41;;;;;;;2.60;2.50;;;21.20;61.10;;;;;;5054501;28;20417;-65
2022/05/18 10:28:26;;;;;;;2.90;2.77;;;21.20;61.10;;;;;;5054789;28;20489;-66
2022/05/18 10:31:07;;;;;;;2.90;2.70;;;21.20;61.10;;;;;;5052906;28;20854;-67
2022/05/18 10:33:39;;;;;;;3.03;2.83;;;21.20;61.00;;;;;;5054738;28;20460;-66
2022/05/18 10:36:12;;;;;;;2.73;2.53;;;21.20;61.00;;;;;;5054448;28;20910;-67
2022/05/18 10:38:51;;;;;;;3.23;3.03;;;21.20;61.00;;;;;;5054758;28;20680;-67
2022/05/18 10:41:24;;;;;;;2.70;2.50;;;21.20;61.10;;;;;;5054755;28;20802;-67
2022/05/18 10:44:12;;;;;;;3.00;2.80;;;21.20;61.10;;;;;;5054406;28;20409;-65
2022/05/18 10:46:47;;;;;;;2.30;2.20;;;21.20;61.00;;;;;;5054166;28;20899;-66
2022/05/18 10:49:35;;;;;;;3.00;2.80;;;21.20;61.00;;;;;;5054379;28;20405;-66
2022/05/18 10:52:14;;;;;;;3.00;2.80;;;21.20;61.00;;;;;;5054314;28;20856;-66
2022/05/18 10:54:51;;;;;;;2.60;2.50;;;21.20;61.00;;;;;;5054210;28;20453;-67
2022/05/18 10:57:20;;;;;;;2.53;2.43;;;21.20;61.00;;;;;;5054239;28;20425;-68
2022/05/18 11:00:03;;;;;;;2.77;2.67;;;21.20;61.00;;;;;;5054146;28;20403;-66
2022/05/18 11:02:51;;;;;;;3.37;3.17;;;21.20;61.00;;;;;;5053191;28;20438;-66
2022/05/18 11:05:39;;;;;;;3.10;2.90;;;21.20;61.00;;;;;;5054151;28;20406;-67
2022/05/18 11:08:14;;;;;;;2.47;2.37;;;21.20;61.00;;;;;;5054179;28;20393;-67
2022/05/18 11:11:29;;;;;;;2.53;2.43;;;21.20;61.00;;;;;;5054376;28;20417;-66
2022/05/18 11:14:15;;;;;;;2.90;2.80;;;21.20;60.90;;;;;;5034806;28;20461;-66
2022/05/18 11:16:48;;;;;;;3.13;2.93;;;21.20;61.00;;;;;;5054006;28;20511;-66
2022/05/18 11:19:40;;;;;;;3.00;2.80;;;21.20;61.00;;;;;;5054019;28;20402;-66
2022/05/18 11:22:11;;;;;;;2.83;2.63;;;21.20;61.00;;;;;;5050905;28;20616;-66
2022/05/18 11:24:57;;;;;;;3.00;2.80;;;21.20;60.90;;;;;;5054126;28;20460;-66
2022/05/18 11:27:32;;;;;;;3.20;3.00;;;21.20;60.90;;;;;;5053533;28;20598;-66
2022/05/18 11:30:12;;;;;;;2.50;2.40;;;21.20;60.90;;;;;;5057100;28;20412;-66
2022/05/18 11:32:52;;;;;;;3.20;3.00;;;21.20;61.00;;;;;;5058030;28;20386;-66
2022/05/18 11:35:37;;;;;;;2.73;2.20;;;21.20;60.90;;;;;;5056277;28;20481;-66
2022/05/18 11:38:10;;;;;;;3.47;2.93;;;21.20;60.80;;;;;;5057426;28;20390;-66
2022/05/18 11:41:00;;;;;;;3.10;2.90;;;21.20;60.90;;;;;;5057883;28;20614;-66
2022/05/18 11:43:47;;;;;;;2.90;2.70;;;21.20;60.90;;;;;;5058068;28;20448;-65
2022/05/18 11:46:40;;;;;;;2.97;2.77;;;21.20;60.90;;;;;;5057652;28;20810;-67
2022/05/18 11:49:43;;;;;;;2.93;2.77;;;21.20;60.90;;;;;;5056734;28;20422;-68
2022/05/18 11:52:39;;;;;;;3.20;3.00;;;21.20;60.80;;;;;;5057523;28;20413;-67
2022/05/18 11:55:20;;;;;;;2.63;2.43;;;21.20;60.90;;;;;;5057568;28;20476;-66
2022/05/18 11:58:06;;;;;;;2.70;2.50;;;21.20;60.80;;;;;;5057719;28;20454;-66
2022/05/18 12:01:14;;;;;;;3.30;3.10;;;21.20;60.80;;;;;;5057479;28;20493;-67
2022/05/18 12:04:10;;;;;;;3.20;3.00;;;21.20;60.90;;;;;;5069405;28;20471;-65
2022/05/18 12:07:01;;;;;;;2.90;2.80;;;21.20;60.80;;;;;;5075420;28;20439;-66
2022/05/18 12:09:36;;;;;;;3.07;2.87;;;21.20;60.80;;;;;;5075317;28;20425;-65
2022/05/18 12:12:13;;;;;;;2.80;2.60;;;21.20;60.80;;;;;;5058608;28;20413;-66
2022/05/18 12:14:53;;;;;;;3.40;3.20;;;21.20;60.80;;;;;;5075212;28;20523;-66
2022/05/18 12:17:44;;;;;;;2.80;2.60;;;21.20;60.80;;;;;;5075144;28;20432;-64
2022/05/18 12:20:33;;;;;;;3.37;3.07;;;21.20;60.90;;;;;;5075086;28;20390;-66
2022/05/18 12:23:02;;;;;;;2.53;2.43;;;21.20;60.80;;;;;;5075283;28;20392;-67
2022/05/18 12:25:30;;;;;;;3.17;2.97;;;21.20;60.80;;;;;;5075149;28;20471;-65
2022/05/18 12:28:00;;;;;;;3.33;3.13;;;21.20;60.80;;;;;;5075144;28;20417;-65
2022/05/18 12:30:29;;;;;;;2.50;2.40;;;21.20;60.80;;;;;;5075194;28;20549;-66
2022/05/18 12:32:56;;;;;;;2.80;2.60;;;21.20;60.80;;;;;;5075152;28;20512;-65
2022/05/18 12:35:33;;;;;;;2.90;2.70;;;21.20;60.80;;;;;;5076504;28;20926;-67
2022/05/18 12:37:58;;;;;;;3.30;3.10;;;21.20;60.80;;;;;;5076806;28;20386;-67
2022/05/18 12:40:49;;;;;;;2.50;2.40;;;21.20;60.70;;;;;;5075329;28;20471;-68
2022/05/18 12:43:17;;;;;;;3.23;3.03;;;21.20;60.80;;;;;;5069743;28;20316;-65
2022/05/18 12:45:47;;;;;;;3.07;2.87;;;21.20;60.80;;;;;;5087808;28;20447;-65
2022/05/18 12:48:19;;;;;;;3.13;2.93;;;21.20;60.80;;;;;;5080527;28;20463;-67
2022/05/18 12:51:13;;;;;;;3.13;2.93;;;21.20;60.80;;;;;;5096707;28;20400;-66
2022/05/18 12:53:51;;;;;;;3.47;3.27;;;21.20;60.80;;;;;;5096968;28;20401;-66
2022/05/18 12:56:36;;;;;;;3.10;2.90;;;21.20;60.80;;;;;;5096931;28;20726;-67
2022/05/18 12:59:08;;;;;;;2.90;2.70;;;21.20;60.80;;;;;;5096718;28;20384;-66
2022/05/18 13:01:40;;;;;;;3.03;2.83;;;21.20;60.80;;;;;;5096544;28;20413;-67
2022/05/18 13:04:09;;;;;;;4.00;2.80;;;21.20;60.80;;;;;;5096538;28;20404;-65
2022/05/18 13:06:55;;;;;;;3.13;2.93;;;21.20;60.80;;;;;;5096413;28;20466;-66
2022/05/18 13:09:35;;;;;;;3.00;2.80;;;21.20;60.80;;;;;;5096751;28;20401;-67
2022/05/18 13:12:22;;;;;;;3.27;3.07;;;21.20;60.70;;;;;;5096393;28;20411;-66
2022/05/18 13:15:21;;;;;;;2.80;2.60;;;21.20;60.70;;;;;;5096205;28;20602;-65
2022/05/18 13:17:46;;;;;;;2.90;2.77;;;21.20;60.70;;;;;;5095239;28;20440;-65
2022/05/18 13:20:44;;;;;;;3.10;2.90;;;21.20;60.60;;;;;;5096239;28;20894;-65
2022/05/18 13:23:24;;;;;;;3.03;2.83;;;21.20;60.40;;;;;;5093436;28;20772;-67
2022/05/18 13:25:54;;;;;;;3.00;2.80;;;21.20;60.60;;;;;;5096308;28;20515;-68